sensor_id;sensor_type;location;lat;lon;timestamp;P1;durP1;ratioP1;P2;durP2;ratioP2
6519;SDS011;3293;51.690;5.982;2022-12-18T00:03:44;65.80;;;34.93;;
6519;SDS011;3293;51.690;5.982;2022-12-18T00:08:45;61.80;;;33.93;;
6519;SDS011;3293;51.690;5.982;2022-12-18T00:13:46;60.67;;;32.67;;
6519;SDS011;3293;51.690;5.982;2022-12-18T00:18:48;59.77;;;32.40;;
6519;SDS011;3293;51.690;5.982;2022-12-18T00:23:49;57.00;;;31.93;;
6519;SDS011;3293;51.690;5.982;2022-12-18T00:28:50;61.83;;;31.03;;
6519;SDS011;3293;51.690;5.982;2022-12-18T00:33:52;60.63;;;32.83;;
6519;SDS011;3293;51.690;5.982;2022-12-18T00:38:54;59.10;;;30.67;;
6519;SDS011;3293;51.690;5.982;2022-12-18T00:43:55;50.97;;;29.73;;
6519;SDS011;3293;51.690;5.982;2022-12-18T00:48:55;53.40;;;30.77;;
6519;SDS011;3293;51.690;5.982;2022-12-18T00:53:55;54.23;;;30.00;;
6519;SDS011;3293;51.690;5.982;2022-12-18T00:58:55;49.83;;;28.60;;
6519;SDS011;3293;51.690;5.982;2022-12-18T01:03:55;50.43;;;28.87;;
6519;SDS011;3293;51.690;5.982;2022-12-18T01:08:55;48.77;;;28.30;;
6519;SDS011;3293;51.690;5.982;2022-12-18T01:13:55;42.50;;;25.63;;
6519;SDS011;3293;51.690;5.982;2022-12-18T01:18:55;43.63;;;26.33;;
6519;SDS011;3293;51.690;5.982;2022-12-18T01:23:56;46.07;;;26.63;;
6519;SDS011;3293;51.690;5.982;2022-12-18T01:28:56;47.17;;;27.50;;
6519;SDS011;3293;51.690;5.982;2022-12-18T01:33:56;43.00;;;24.97;;
6519;SDS011;3293;51.690;5.982;2022-12-18T01:38:59;44.53;;;26.97;;
6519;SDS011;3293;51.690;5.982;2022-12-18T01:44:00;43.43;;;24.83;;
6519;SDS011;3293;51.690;5.982;2022-12-18T01:49:00;44.67;;;25.80;;
6519;SDS011;3293;51.690;5.982;2022-12-18T01:54:00;43.67;;;25.03;;
6519;SDS011;3293;51.690;5.982;2022-12-18T01:59:04;41.83;;;24.17;;
6519;SDS011;3293;51.690;5.982;2022-12-18T02:04:21;38.60;;;23.57;;
6519;SDS011;3293;51.690;5.982;2022-12-18T02:09:24;39.67;;;24.03;;
6519;SDS011;3293;51.690;5.982;2022-12-18T02:19:44;34.10;;;22.13;;
6519;SDS011;3293;51.690;5.982;2022-12-18T02:29:59;37.20;;;23.87;;
6519;SDS011;3293;51.690;5.982;2022-12-18T02:35:01;37.53;;;22.53;;
6519;SDS011;3293;51.690;5.982;2022-12-18T02:40:04;39.30;;;22.37;;
6519;SDS011;3293;51.690;5.982;2022-12-18T02:45:05;38.70;;;21.87;;
6519;SDS011;3293;51.690;5.982;2022-12-18T02:50:08;38.43;;;22.30;;
6519;SDS011;3293;51.690;5.982;2022-12-18T03:00:33;35.37;;;21.47;;
6519;SDS011;3293;51.690;5.982;2022-12-18T03:06:02;35.93;;;21.87;;
6519;SDS011;3293;51.690;5.982;2022-12-18T03:11:10;33.77;;;21.37;;
6519;SDS011;3293;51.690;5.982;2022-12-18T03:16:15;35.40;;;21.57;;
6519;SDS011;3293;51.690;5.982;2022-12-18T03:21:20;34.37;;;21.57;;
6519;SDS011;3293;51.690;5.982;2022-12-18T03:26:24;30.33;;;19.97;;
6519;SDS011;3293;51.690;5.982;2022-12-18T03:31:28;32.03;;;20.40;;
6519;SDS011;3293;51.690;5.982;2022-12-18T03:36:30;34.27;;;20.83;;
6519;SDS011;3293;51.690;5.982;2022-12-18T03:41:32;32.40;;;19.50;;
6519;SDS011;3293;51.690;5.982;2022-12-18T03:46:41;31.93;;;19.73;;
6519;SDS011;3293;51.690;5.982;2022-12-18T03:56:57;29.70;;;19.47;;
6519;SDS011;3293;51.690;5.982;2022-12-18T04:02:00;32.83;;;19.83;;
6519;SDS011;3293;51.690;5.982;2022-12-18T04:07:03;32.30;;;19.90;;
6519;SDS011;3293;51.690;5.982;2022-12-18T04:12:04;33.47;;;19.80;;
6519;SDS011;3293;51.690;5.982;2022-12-18T04:17:04;30.67;;;18.83;;
6519;SDS011;3293;51.690;5.982;2022-12-18T04:22:04;29.60;;;18.77;;
6519;SDS011;3293;51.690;5.982;2022-12-18T04:27:04;27.07;;;19.07;;
6519;SDS011;3293;51.690;5.982;2022-12-18T04:32:04;28.17;;;18.27;;
6519;SDS011;3293;51.690;5.982;2022-12-18T04:37:04;24.80;;;17.57;;
6519;SDS011;3293;51.690;5.982;2022-12-18T04:42:04;28.00;;;16.97;;
6519;SDS011;3293;51.690;5.982;2022-12-18T04:47:04;27.20;;;16.80;;
6519;SDS011;3293;51.690;5.982;2022-12-18T04:52:04;26.03;;;17.00;;
6519;SDS011;3293;51.690;5.982;2022-12-18T04:57:04;29.03;;;17.90;;
6519;SDS011;3293;51.690;5.982;2022-12-18T05:02:04;28.97;;;18.23;;
6519;SDS011;3293;51.690;5.982;2022-12-18T05:07:04;29.37;;;18.37;;
6519;SDS011;3293;51.690;5.982;2022-12-18T05:12:04;26.97;;;18.70;;
6519;SDS011;3293;51.690;5.982;2022-12-18T05:17:04;26.10;;;17.33;;
6519;SDS011;3293;51.690;5.982;2022-12-18T05:22:04;22.93;;;16.20;;
6519;SDS011;3293;51.690;5.982;2022-12-18T05:27:04;24.63;;;16.00;;
6519;SDS011;3293;51.690;5.982;2022-12-18T05:32:04;21.70;;;16.07;;
6519;SDS011;3293;51.690;5.982;2022-12-18T05:37:04;23.93;;;16.20;;
6519;SDS011;3293;51.690;5.982;2022-12-18T05:42:04;27.13;;;17.20;;
6519;SDS011;3293;51.690;5.982;2022-12-18T05:47:04;24.10;;;16.37;;
6519;SDS011;3293;51.690;5.982;2022-12-18T05:52:04;26.27;;;17.33;;
6519;SDS011;3293;51.690;5.982;2022-12-18T05:57:04;24.67;;;16.90;;
6519;SDS011;3293;51.690;5.982;2022-12-18T06:02:04;23.20;;;16.73;;
6519;SDS011;3293;51.690;5.982;2022-12-18T06:07:04;27.70;;;17.27;;
6519;SDS011;3293;51.690;5.982;2022-12-18T06:12:05;27.50;;;18.70;;
6519;SDS011;3293;51.690;5.982;2022-12-18T06:17:08;24.00;;;17.10;;
6519;SDS011;3293;51.690;5.982;2022-12-18T06:22:08;26.50;;;17.47;;
6519;SDS011;3293;51.690;5.982;2022-12-18T06:27:08;29.83;;;17.47;;
6519;SDS011;3293;51.690;5.982;2022-12-18T06:32:09;28.93;;;18.50;;
6519;SDS011;3293;51.690;5.982;2022-12-18T06:37:09;29.47;;;18.80;;
6519;SDS011;3293;51.690;5.982;2022-12-18T06:42:09;25.63;;;17.53;;
6519;SDS011;3293;51.690;5.982;2022-12-18T06:47:10;27.80;;;17.57;;
6519;SDS011;3293;51.690;5.982;2022-12-18T06:52:10;28.23;;;17.27;;
6519;SDS011;3293;51.690;5.982;2022-12-18T06:57:10;30.97;;;18.00;;
6519;SDS011;3293;51.690;5.982;2022-12-18T07:02:11;27.13;;;18.83;;
6519;SDS011;3293;51.690;5.982;2022-12-18T07:07:12;29.10;;;18.50;;
6519;SDS011;3293;51.690;5.982;2022-12-18T07:12:11;27.43;;;18.40;;
6519;SDS011;3293;51.690;5.982;2022-12-18T07:17:11;31.40;;;18.30;;
6519;SDS011;3293;51.690;5.982;2022-12-18T07:22:12;27.60;;;17.77;;
6519;SDS011;3293;51.690;5.982;2022-12-18T07:27:11;26.50;;;17.63;;
6519;SDS011;3293;51.690;5.982;2022-12-18T07:32:11;26.30;;;18.10;;
6519;SDS011;3293;51.690;5.982;2022-12-18T07:37:11;24.87;;;17.00;;
6519;SDS011;3293;51.690;5.982;2022-12-18T07:42:11;29.47;;;18.57;;
6519;SDS011;3293;51.690;5.982;2022-12-18T07:47:33;31.03;;;18.13;;
6519;SDS011;3293;51.690;5.982;2022-12-18T07:52:35;26.83;;;17.80;;
6519;SDS011;3293;51.690;5.982;2022-12-18T07:57:35;29.17;;;19.27;;
6519;SDS011;3293;51.690;5.982;2022-12-18T08:02:35;28.77;;;18.17;;
6519;SDS011;3293;51.690;5.982;2022-12-18T08:07:35;31.50;;;18.97;;
6519;SDS011;3293;51.690;5.982;2022-12-18T08:12:35;28.47;;;18.13;;
6519;SDS011;3293;51.690;5.982;2022-12-18T08:17:34;27.03;;;17.60;;
6519;SDS011;3293;51.690;5.982;2022-12-18T08:22:37;21.53;;;16.77;;
6519;SDS011;3293;51.690;5.982;2022-12-18T08:27:38;26.97;;;17.00;;
6519;SDS011;3293;51.690;5.982;2022-12-18T08:32:38;25.03;;;16.17;;
6519;SDS011;3293;51.690;5.982;2022-12-18T08:37:38;25.20;;;17.20;;
6519;SDS011;3293;51.690;5.982;2022-12-18T08:42:38;27.07;;;17.33;;
6519;SDS011;3293;51.690;5.982;2022-12-18T08:47:56;22.87;;;16.50;;
6519;SDS011;3293;51.690;5.982;2022-12-18T08:52:56;23.53;;;16.13;;
6519;SDS011;3293;51.690;5.982;2022-12-18T08:57:56;24.17;;;16.10;;
6519;SDS011;3293;51.690;5.982;2022-12-18T09:02:56;23.47;;;14.37;;
6519;SDS011;3293;51.690;5.982;2022-12-18T09:07:56;24.37;;;15.30;;
6519;SDS011;3293;51.690;5.982;2022-12-18T09:12:56;22.10;;;15.50;;
6519;SDS011;3293;51.690;5.982;2022-12-18T09:17:56;22.90;;;14.80;;
6519;SDS011;3293;51.690;5.982;2022-12-18T09:22:56;25.07;;;13.70;;
6519;SDS011;3293;51.690;5.982;2022-12-18T09:27:56;22.83;;;14.47;;
6519;SDS011;3293;51.690;5.982;2022-12-18T09:32:56;21.57;;;14.83;;
6519;SDS011;3293;51.690;5.982;2022-12-18T09:37:56;22.90;;;14.93;;
6519;SDS011;3293;51.690;5.982;2022-12-18T09:43:00;19.67;;;13.47;;
6519;SDS011;3293;51.690;5.982;2022-12-18T09:48:03;17.20;;;12.73;;
6519;SDS011;3293;51.690;5.982;2022-12-18T09:53:07;21.57;;;13.13;;
6519;SDS011;3293;51.690;5.982;2022-12-18T09:58:19;19.93;;;13.30;;
6519;SDS011;3293;51.690;5.982;2022-12-18T10:03:27;18.60;;;12.30;;
6519;SDS011;3293;51.690;5.982;2022-12-18T10:08:37;19.47;;;12.90;;
6519;SDS011;3293;51.690;5.982;2022-12-18T10:13:55;21.83;;;13.37;;
6519;SDS011;3293;51.690;5.982;2022-12-18T10:29:15;17.23;;;12.80;;
6519;SDS011;3293;51.690;5.982;2022-12-18T10:34:15;20.87;;;13.10;;
6519;SDS011;3293;51.690;5.982;2022-12-18T10:39:16;21.37;;;12.47;;
6519;SDS011;3293;51.690;5.982;2022-12-18T10:44:22;20.33;;;12.93;;
6519;SDS011;3293;51.690;5.982;2022-12-18T10:49:27;20.27;;;12.97;;
6519;SDS011;3293;51.690;5.982;2022-12-18T10:54:29;20.33;;;13.73;;
6519;SDS011;3293;51.690;5.982;2022-12-18T10:59:30;20.13;;;12.53;;
6519;SDS011;3293;51.690;5.982;2022-12-18T11:04:51;17.87;;;11.20;;
6519;SDS011;3293;51.690;5.982;2022-12-18T11:10:01;16.70;;;11.87;;
6519;SDS011;3293;51.690;5.982;2022-12-18T11:15:02;17.77;;;12.00;;
6519;SDS011;3293;51.690;5.982;2022-12-18T11:20:03;15.17;;;11.80;;
6519;SDS011;3293;51.690;5.982;2022-12-18T11:30:25;17.83;;;12.10;;
6519;SDS011;3293;51.690;5.982;2022-12-18T11:40:38;19.00;;;12.13;;
6519;SDS011;3293;51.690;5.982;2022-12-18T11:45:43;14.83;;;11.77;;
6519;SDS011;3293;51.690;5.982;2022-12-18T11:50:53;16.77;;;11.87;;
6519;SDS011;3293;51.690;5.982;2022-12-18T12:01:42;19.43;;;12.07;;
6519;SDS011;3293;51.690;5.982;2022-12-18T12:38:54;17.60;;;11.90;;
6519;SDS011;3293;51.690;5.982;2022-12-18T12:43:57;19.77;;;12.37;;
6519;SDS011;3293;51.690;5.982;2022-12-18T12:49:02;16.83;;;11.80;;
6519;SDS011;3293;51.690;5.982;2022-12-18T12:54:04;18.33;;;12.30;;
6519;SDS011;3293;51.690;5.982;2022-12-18T13:04:44;18.20;;;12.10;;
6519;SDS011;3293;51.690;5.982;2022-12-18T13:15:23;17.87;;;12.27;;
6519;SDS011;3293;51.690;5.982;2022-12-18T13:20:33;18.40;;;12.37;;
6519;SDS011;3293;51.690;5.982;2022-12-18T13:25:46;20.20;;;13.03;;
6519;SDS011;3293;51.690;5.982;2022-12-18T13:30:50;19.67;;;14.00;;
6519;SDS011;3293;51.690;5.982;2022-12-18T13:41:27;21.00;;;13.27;;
6519;SDS011;3293;51.690;5.982;2022-12-18T13:46:49;20.33;;;12.73;;
6519;SDS011;3293;51.690;5.982;2022-12-18T13:51:50;18.77;;;12.47;;
6519;SDS011;3293;51.690;5.982;2022-12-18T13:56:52;22.97;;;14.00;;
6519;SDS011;3293;51.690;5.982;2022-12-18T14:01:54;20.40;;;13.60;;
6519;SDS011;3293;51.690;5.982;2022-12-18T14:12:11;20.83;;;13.37;;
6519;SDS011;3293;51.690;5.982;2022-12-18T14:17:37;19.73;;;14.17;;
6519;SDS011;3293;51.690;5.982;2022-12-18T14:22:38;20.67;;;12.90;;
6519;SDS011;3293;51.690;5.982;2022-12-18T14:27:45;19.63;;;13.30;;
6519;SDS011;3293;51.690;5.982;2022-12-18T14:33:05;22.80;;;13.80;;
6519;SDS011;3293;51.690;5.982;2022-12-18T14:43:15;24.47;;;14.87;;
6519;SDS011;3293;51.690;5.982;2022-12-18T14:48:16;20.87;;;13.33;;
6519;SDS011;3293;51.690;5.982;2022-12-18T14:53:19;22.33;;;14.00;;
6519;SDS011;3293;51.690;5.982;2022-12-18T14:58:22;20.67;;;13.80;;
6519;SDS011;3293;51.690;5.982;2022-12-18T15:03:22;23.50;;;14.40;;
6519;SDS011;3293;51.690;5.982;2022-12-18T15:08:27;24.00;;;15.43;;
6519;SDS011;3293;51.690;5.982;2022-12-18T15:13:36;21.10;;;14.80;;
6519;SDS011;3293;51.690;5.982;2022-12-18T15:18:35;22.20;;;14.73;;
6519;SDS011;3293;51.690;5.982;2022-12-18T15:23:46;25.00;;;16.27;;
6519;SDS011;3293;51.690;5.982;2022-12-18T15:28:55;24.80;;;14.93;;
6519;SDS011;3293;51.690;5.982;2022-12-18T15:38:58;22.97;;;15.63;;
6519;SDS011;3293;51.690;5.982;2022-12-18T15:43:58;24.80;;;15.20;;
6519;SDS011;3293;51.690;5.982;2022-12-18T15:48:58;30.80;;;16.60;;
6519;SDS011;3293;51.690;5.982;2022-12-18T15:53:59;25.07;;;16.40;;
6519;SDS011;3293;51.690;5.982;2022-12-18T15:59:04;26.83;;;16.27;;
6519;SDS011;3293;51.690;5.982;2022-12-18T16:04:13;26.17;;;17.00;;
6519;SDS011;3293;51.690;5.982;2022-12-18T16:09:15;28.27;;;16.90;;
6519;SDS011;3293;51.690;5.982;2022-12-18T16:14:16;24.47;;;16.50;;
6519;SDS011;3293;51.690;5.982;2022-12-18T16:19:21;25.13;;;16.27;;
6519;SDS011;3293;51.690;5.982;2022-12-18T16:24:22;27.60;;;17.17;;
6519;SDS011;3293;51.690;5.982;2022-12-18T16:29:32;27.13;;;17.43;;
6519;SDS011;3293;51.690;5.982;2022-12-18T16:34:33;28.97;;;16.93;;
6519;SDS011;3293;51.690;5.982;2022-12-18T16:39:33;27.70;;;17.83;;
6519;SDS011;3293;51.690;5.982;2022-12-18T16:44:34;35.93;;;18.13;;
6519;SDS011;3293;51.690;5.982;2022-12-18T16:49:34;26.80;;;17.50;;
6519;SDS011;3293;51.690;5.982;2022-12-18T16:54:34;26.63;;;17.30;;
6519;SDS011;3293;51.690;5.982;2022-12-18T16:59:35;28.53;;;19.13;;
6519;SDS011;3293;51.690;5.982;2022-12-18T17:04:35;32.43;;;18.17;;
6519;SDS011;3293;51.690;5.982;2022-12-18T17:09:35;33.43;;;19.20;;
6519;SDS011;3293;51.690;5.982;2022-12-18T17:14:36;31.70;;;18.80;;
6519;SDS011;3293;51.690;5.982;2022-12-18T17:19:36;29.17;;;18.57;;
6519;SDS011;3293;51.690;5.982;2022-12-18T17:24:36;28.67;;;18.07;;
6519;SDS011;3293;51.690;5.982;2022-12-18T17:29:36;29.27;;;17.53;;
6519;SDS011;3293;51.690;5.982;2022-12-18T17:34:36;30.10;;;19.03;;
6519;SDS011;3293;51.690;5.982;2022-12-18T17:39:36;31.90;;;18.77;;
6519;SDS011;3293;51.690;5.982;2022-12-18T17:44:36;29.70;;;18.27;;
6519;SDS011;3293;51.690;5.982;2022-12-18T17:49:36;30.10;;;19.77;;
6519;SDS011;3293;51.690;5.982;2022-12-18T17:54:36;27.23;;;18.10;;
6519;SDS011;3293;51.690;5.982;2022-12-18T17:59:39;27.00;;;18.63;;
6519;SDS011;3293;51.690;5.982;2022-12-18T18:04:39;32.83;;;18.93;;
6519;SDS011;3293;51.690;5.982;2022-12-18T18:09:39;35.67;;;20.83;;
6519;SDS011;3293;51.690;5.982;2022-12-18T18:14:39;30.87;;;18.37;;
6519;SDS011;3293;51.690;5.982;2022-12-18T18:19:39;37.00;;;20.37;;
6519;SDS011;3293;51.690;5.982;2022-12-18T18:24:40;30.93;;;20.03;;
6519;SDS011;3293;51.690;5.982;2022-12-18T18:29:41;30.27;;;19.60;;
6519;SDS011;3293;51.690;5.982;2022-12-18T18:34:41;32.43;;;19.97;;
6519;SDS011;3293;51.690;5.982;2022-12-18T18:39:42;36.20;;;20.57;;
6519;SDS011;3293;51.690;5.982;2022-12-18T18:44:42;31.10;;;19.33;;
6519;SDS011;3293;51.690;5.982;2022-12-18T18:49:43;32.40;;;20.20;;
6519;SDS011;3293;51.690;5.982;2022-12-18T18:54:43;32.17;;;19.10;;
6519;SDS011;3293;51.690;5.982;2022-12-18T18:59:45;33.77;;;20.00;;
6519;SDS011;3293;51.690;5.982;2022-12-18T19:04:45;33.63;;;20.50;;
6519;SDS011;3293;51.690;5.982;2022-12-18T19:09:45;31.27;;;20.10;;
6519;SDS011;3293;51.690;5.982;2022-12-18T19:14:50;38.33;;;20.57;;
6519;SDS011;3293;51.690;5.982;2022-12-18T19:19:52;36.43;;;19.80;;
6519;SDS011;3293;51.690;5.982;2022-12-18T19:24:51;32.13;;;19.87;;
6519;SDS011;3293;51.690;5.982;2022-12-18T19:29:51;37.50;;;20.70;;
6519;SDS011;3293;51.690;5.982;2022-12-18T19:34:52;31.93;;;20.53;;
6519;SDS011;3293;51.690;5.982;2022-12-18T19:39:52;36.90;;;20.73;;
6519;SDS011;3293;51.690;5.982;2022-12-18T19:44:53;32.33;;;19.90;;
6519;SDS011;3293;51.690;5.982;2022-12-18T19:49:53;35.60;;;21.10;;
6519;SDS011;3293;51.690;5.982;2022-12-18T19:54:53;35.87;;;20.50;;
6519;SDS011;3293;51.690;5.982;2022-12-18T19:59:52;38.07;;;22.40;;
6519;SDS011;3293;51.690;5.982;2022-12-18T20:04:52;34.73;;;20.87;;
6519;SDS011;3293;51.690;5.982;2022-12-18T20:09:52;36.17;;;20.70;;
6519;SDS011;3293;51.690;5.982;2022-12-18T20:14:52;36.87;;;22.50;;
6519;SDS011;3293;51.690;5.982;2022-12-18T20:19:53;35.37;;;21.43;;
6519;SDS011;3293;51.690;5.982;2022-12-18T20:24:52;37.40;;;22.07;;
6519;SDS011;3293;51.690;5.982;2022-12-18T20:29:52;37.17;;;22.10;;
6519;SDS011;3293;51.690;5.982;2022-12-18T20:34:52;35.10;;;22.83;;
6519;SDS011;3293;51.690;5.982;2022-12-18T20:39:53;43.23;;;24.20;;
6519;SDS011;3293;51.690;5.982;2022-12-18T20:44:53;40.20;;;23.77;;
6519;SDS011;3293;51.690;5.982;2022-12-18T20:49:53;44.10;;;25.13;;
6519;SDS011;3293;51.690;5.982;2022-12-18T20:54:53;43.83;;;25.30;;
6519;SDS011;3293;51.690;5.982;2022-12-18T20:59:53;42.90;;;24.33;;
6519;SDS011;3293;51.690;5.982;2022-12-18T21:04:53;39.83;;;25.73;;
6519;SDS011;3293;51.690;5.982;2022-12-18T21:09:53;47.30;;;26.90;;
6519;SDS011;3293;51.690;5.982;2022-12-18T21:14:53;43.87;;;26.87;;
6519;SDS011;3293;51.690;5.982;2022-12-18T21:19:53;45.63;;;26.53;;
6519;SDS011;3293;51.690;5.982;2022-12-18T21:24:53;46.00;;;26.00;;
6519;SDS011;3293;51.690;5.982;2022-12-18T21:29:53;48.80;;;28.83;;
6519;SDS011;3293;51.690;5.982;2022-12-18T21:34:53;44.50;;;27.50;;
6519;SDS011;3293;51.690;5.982;2022-12-18T21:39:53;50.30;;;28.50;;
6519;SDS011;3293;51.690;5.982;2022-12-18T21:44:52;47.90;;;27.80;;
6519;SDS011;3293;51.690;5.982;2022-12-18T21:49:52;48.50;;;29.27;;
6519;SDS011;3293;51.690;5.982;2022-12-18T21:54:52;52.57;;;28.67;;
6519;SDS011;3293;51.690;5.982;2022-12-18T21:59:52;48.90;;;28.27;;
6519;SDS011;3293;51.690;5.982;2022-12-18T22:04:55;50.47;;;28.83;;
6519;SDS011;3293;51.690;5.982;2022-12-18T22:09:55;53.33;;;28.73;;
6519;SDS011;3293;51.690;5.982;2022-12-18T22:14:55;52.63;;;29.33;;
6519;SDS011;3293;51.690;5.982;2022-12-18T22:19:55;55.27;;;30.90;;
6519;SDS011;3293;51.690;5.982;2022-12-18T22:24:54;52.00;;;29.53;;
6519;SDS011;3293;51.690;5.982;2022-12-18T22:29:55;61.97;;;31.30;;
6519;SDS011;3293;51.690;5.982;2022-12-18T22:35:04;52.00;;;29.77;;
6519;SDS011;3293;51.690;5.982;2022-12-18T22:40:04;55.87;;;30.60;;
6519;SDS011;3293;51.690;5.982;2022-12-18T22:45:05;55.20;;;31.67;;
6519;SDS011;3293;51.690;5.982;2022-12-18T22:50:05;55.93;;;31.87;;
6519;SDS011;3293;51.690;5.982;2022-12-18T22:55:06;58.27;;;30.93;;
6519;SDS011;3293;51.690;5.982;2022-12-18T23:00:06;59.87;;;30.67;;
6519;SDS011;3293;51.690;5.982;2022-12-18T23:05:07;54.67;;;30.63;;
6519;SDS011;3293;51.690;5.982;2022-12-18T23:10:07;55.27;;;32.70;;
6519;SDS011;3293;51.690;5.982;2022-12-18T23:15:07;50.27;;;28.73;;
6519;SDS011;3293;51.690;5.982;2022-12-18T23:20:08;54.83;;;29.23;;
6519;SDS011;3293;51.690;5.982;2022-12-18T23:25:08;60.50;;;30.57;;
6519;SDS011;3293;51.690;5.982;2022-12-18T23:30:08;56.77;;;30.83;;
6519;SDS011;3293;51.690;5.982;2022-12-18T23:35:08;64.80;;;31.37;;
6519;SDS011;3293;51.690;5.982;2022-12-18T23:40:08;60.13;;;29.83;;
6519;SDS011;3293;51.690;5.982;2022-12-18T23:45:09;58.07;;;31.33;;
6519;SDS011;3293;51.690;5.982;2022-12-18T23:50:09;61.37;;;32.50;;
6519;SDS011;3293;51.690;5.982;2022-12-18T23:55:09;57.67;;;31.47;;
